createdAt,value
2018-11-02T00:03:11.506Z,99.90
2018-11-02T00:05:42.719Z,99.90
2018-11-02T00:08:46.158Z,99.90
2018-11-02T00:11:18.361Z,99.90
2018-11-02T00:13:50.739Z,99.90
2018-11-02T00:16:22.923Z,99.90
2018-11-02T00:18:54.596Z,99.90
2018-11-02T00:21:26.095Z,99.90
2018-11-02T00:23:57.906Z,99.90
2018-11-02T00:26:29.397Z,99.90
2018-11-02T00:29:01.067Z,99.90
2018-11-02T00:31:32.698Z,99.90
2018-11-02T00:34:04.170Z,99.90
2018-11-02T00:36:35.800Z,99.90
2018-11-02T00:39:07.453Z,99.90
2018-11-02T00:42:04.023Z,99.90
2018-11-02T00:44:35.590Z,99.90
2018-11-02T00:47:08.035Z,99.90
2018-11-02T00:49:39.642Z,99.90
2018-11-02T00:52:15.419Z,99.90
2018-11-02T00:54:50.438Z,99.90
2018-11-02T00:57:23.763Z,99.90
2018-11-02T00:59:57.822Z,99.90
2018-11-02T01:02:30.936Z,99.90
2018-11-02T01:05:02.759Z,99.90
2018-11-02T01:07:34.100Z,99.90
2018-11-02T01:10:06.151Z,99.90
2018-11-02T01:12:38.401Z,99.90
2018-11-02T01:15:10.670Z,99.90
2018-11-02T01:17:42.264Z,99.90
2018-11-02T01:20:13.781Z,99.90
2018-11-02T01:22:45.273Z,99.90
2018-11-02T01:25:16.873Z,99.90
2018-11-02T01:27:48.683Z,99.90
2018-11-02T01:30:20.106Z,99.90
2018-11-02T01:32:51.433Z,99.90
2018-11-02T01:35:23.071Z,99.90
2018-11-02T01:37:54.506Z,99.90
2018-11-02T01:40:26.160Z,99.90
2018-11-02T01:42:57.604Z,99.90
2018-11-02T01:45:28.998Z,99.90
2018-11-02T01:48:00.566Z,99.90
2018-11-02T01:50:31.983Z,99.90
2018-11-02T01:53:03.270Z,99.90
2018-11-02T01:55:34.662Z,99.90
2018-11-02T01:58:06.335Z,99.90
2018-11-02T02:00:38.246Z,99.90
2018-11-02T02:03:09.687Z,99.90
2018-11-02T02:05:41.317Z,99.90
2018-11-02T02:08:12.930Z,99.90
2018-11-02T02:10:44.322Z,99.90
2018-11-02T02:13:15.858Z,99.90
2018-11-02T02:15:47.327Z,99.90
2018-11-02T02:18:18.848Z,99.90
2018-11-02T02:20:50.268Z,99.90
2018-11-02T02:23:21.677Z,99.90
2018-11-02T02:25:53.777Z,99.90
2018-11-02T02:28:25.261Z,99.90
2018-11-02T02:30:56.919Z,99.90
2018-11-02T02:33:28.361Z,99.90
2018-11-02T02:35:59.890Z,99.90
2018-11-02T02:38:31.703Z,99.90
2018-11-02T02:41:03.280Z,99.90
2018-11-02T02:46:52.425Z,99.90
2018-11-02T02:49:24.166Z,99.90
2018-11-02T02:51:55.439Z,99.90
2018-11-02T02:54:27.221Z,99.90
2018-11-02T02:56:59.608Z,99.90
2018-11-02T02:59:31.108Z,99.90
2018-11-02T03:02:02.763Z,99.90
2018-11-02T03:07:41.930Z,99.90
2018-11-02T03:16:37.871Z,99.90
2018-11-02T03:19:09.294Z,99.90
2018-11-02T03:21:40.248Z,99.90
2018-11-02T03:24:11.494Z,99.90
2018-11-02T03:26:42.127Z,99.90
2018-11-02T03:29:13.855Z,99.90
2018-11-02T03:34:52.912Z,99.90
2018-11-02T03:37:24.403Z,99.90
2018-11-02T03:39:56.069Z,99.90
2018-11-02T03:42:27.149Z,99.90
2018-11-02T03:44:58.605Z,99.90
2018-11-02T03:48:33.100Z,99.90
2018-11-02T03:51:04.806Z,99.90
2018-11-02T03:54:07.687Z,99.90
2018-11-02T03:56:39.495Z,99.90
2018-11-02T03:59:10.858Z,99.90
2018-11-02T04:01:41.996Z,99.90
2018-11-02T04:04:18.463Z,99.90
2018-11-02T04:06:50.289Z,99.90
2018-11-02T04:09:22.832Z,99.90
2018-11-02T04:11:54.295Z,99.90
2018-11-02T04:14:26.384Z,99.90
2018-11-02T04:16:57.615Z,99.90
2018-11-02T04:19:28.701Z,99.90
2018-11-02T04:22:00.600Z,99.90
2018-11-02T04:24:31.794Z,99.90
2018-11-02T04:30:10.940Z,99.90
2018-11-02T04:32:42.646Z,99.90
2018-11-02T04:35:14.376Z,99.90
2018-11-02T04:37:45.886Z,99.90
2018-11-02T04:40:17.493Z,99.90
2018-11-02T04:42:49.110Z,99.90
2018-11-02T04:48:28.232Z,99.90
2018-11-02T04:50:59.717Z,99.90
2018-11-02T04:53:30.736Z,99.90
2018-11-02T04:56:02.029Z,99.90
2018-11-02T04:58:33.273Z,99.90
2018-11-02T05:01:04.538Z,99.90
2018-11-02T05:03:35.591Z,99.90
2018-11-02T05:06:06.767Z,99.90
2018-11-02T05:08:38.215Z,99.90
2018-11-02T05:11:09.648Z,99.90
2018-11-02T05:13:40.627Z,99.90
2018-11-02T05:16:11.861Z,99.90
2018-11-02T05:18:43.231Z,99.90
2018-11-02T05:21:14.378Z,99.90
2018-11-02T05:23:46.074Z,99.90
2018-11-02T05:26:17.119Z,99.90
2018-11-02T05:28:48.243Z,99.90
2018-11-02T05:31:19.717Z,99.90
2018-11-02T05:33:51.031Z,99.90
2018-11-02T05:36:22.848Z,99.90
2018-11-02T05:38:55.085Z,99.90
2018-11-02T05:41:26.145Z,99.90
2018-11-02T05:43:57.398Z,99.90
2018-11-02T05:46:29.170Z,99.90
2018-11-02T05:49:00.310Z,99.90
2018-11-02T05:51:31.407Z,99.90
2018-11-02T05:54:02.900Z,99.90
2018-11-02T05:56:34.086Z,99.90
2018-11-02T05:59:05.898Z,99.90
2018-11-02T06:01:37.310Z,99.90
2018-11-02T06:04:08.375Z,99.90
2018-11-02T06:06:39.373Z,99.90
2018-11-02T06:09:11.243Z,99.90
2018-11-02T06:11:42.237Z,99.90
2018-11-02T06:14:13.257Z,99.90
2018-11-02T06:16:43.976Z,99.90
2018-11-02T06:19:15.262Z,99.90
2018-11-02T06:24:54.472Z,99.90
2018-11-02T06:27:26.123Z,99.90
2018-11-02T06:29:59.301Z,99.90
2018-11-02T06:32:31.112Z,99.90
2018-11-02T06:35:02.838Z,99.90
2018-11-02T06:37:34.227Z,99.90
2018-11-02T06:40:05.639Z,99.90
2018-11-02T06:42:37.602Z,99.90
2018-11-02T06:45:09.756Z,99.90
2018-11-02T06:47:41.625Z,99.90
2018-11-02T06:50:13.085Z,99.90
2018-11-02T06:52:44.737Z,99.90
2018-11-02T06:55:16.215Z,99.90
2018-11-02T06:57:47.673Z,99.90
2018-11-02T07:00:19.417Z,99.90
2018-11-02T07:02:51.160Z,99.90
2018-11-02T07:05:29.842Z,99.90
2018-11-02T07:08:01.471Z,99.90
2018-11-02T07:10:33.204Z,99.90
2018-11-02T07:13:04.976Z,99.90
2018-11-02T07:15:36.711Z,99.90
2018-11-02T07:18:12.614Z,99.90
2018-11-02T07:20:44.776Z,99.90
2018-11-02T07:23:16.290Z,99.90
2018-11-02T07:25:48.029Z,99.90
2018-11-02T07:28:19.713Z,99.90
2018-11-02T07:30:51.535Z,99.90
2018-11-02T07:33:23.879Z,99.90
2018-11-02T07:35:55.265Z,99.90
2018-11-02T07:38:26.814Z,99.90
2018-11-02T07:40:58.457Z,99.90
2018-11-02T07:43:30.373Z,99.90
2018-11-02T07:46:01.974Z,99.90
2018-11-02T07:48:33.874Z,99.90
2018-11-02T07:51:05.640Z,99.90
2018-11-02T07:53:37.509Z,99.90
2018-11-02T07:56:09.080Z,99.90
2018-11-02T07:58:40.570Z,99.90
2018-11-02T08:01:12.235Z,99.90
2018-11-02T08:03:43.900Z,99.90
2018-11-02T08:06:15.650Z,99.90
2018-11-02T08:11:59.899Z,99.90
2018-11-02T08:17:38.935Z,99.90
2018-11-02T08:20:10.219Z,99.90
2018-11-02T08:22:41.248Z,99.90
2018-11-02T08:25:13.078Z,99.90
2018-11-02T08:27:44.280Z,99.90
2018-11-02T08:30:15.666Z,99.90
2018-11-02T08:32:47.169Z,99.90
2018-11-02T08:35:18.530Z,99.90
2018-11-02T08:37:50.168Z,99.90
2018-11-02T08:40:21.510Z,99.90
2018-11-02T08:42:52.854Z,99.90
2018-11-02T08:45:23.736Z,99.90
2018-11-02T08:47:55.034Z,99.90
2018-11-02T08:50:26.432Z,99.90
2018-11-02T08:52:57.422Z,99.90
2018-11-02T08:55:28.708Z,99.90
2018-11-02T08:57:59.762Z,99.90
2018-11-02T09:00:31.184Z,99.90
2018-11-02T09:03:02.475Z,99.90
2018-11-02T09:05:33.652Z,99.90
2018-11-02T09:08:05.049Z,99.90
2018-11-02T09:10:38.399Z,99.90
2018-11-02T09:13:09.746Z,99.90
2018-11-02T09:15:40.898Z,99.90
2018-11-02T09:18:12.138Z,99.90
2018-11-02T09:20:43.562Z,99.90
2018-11-02T09:23:15.229Z,99.90
2018-11-02T09:25:46.558Z,99.90
2018-11-02T09:28:17.774Z,99.90
2018-11-02T09:30:49.001Z,99.90
2018-11-02T09:33:20.203Z,99.90
2018-11-02T09:35:51.582Z,99.90
2018-11-02T09:38:23.018Z,99.90
2018-11-02T09:40:54.649Z,99.90
2018-11-02T09:43:26.015Z,99.90
2018-11-02T09:45:57.282Z,99.90
2018-11-02T09:48:28.546Z,99.90
2018-11-02T09:51:00.314Z,99.90
2018-11-02T09:53:31.486Z,99.90
2018-11-02T09:56:02.746Z,99.90
2018-11-02T10:01:40.986Z,99.90
2018-11-02T10:07:14.318Z,99.90
2018-11-02T10:09:45.462Z,99.90
2018-11-02T10:12:16.755Z,99.90
2018-11-02T10:14:50.562Z,99.90
2018-11-02T10:17:24.381Z,99.90
2018-11-02T10:20:33.601Z,99.90
2018-11-02T10:23:06.797Z,99.90
2018-11-02T10:25:39.700Z,99.90
2018-11-02T10:28:13.206Z,99.90
2018-11-02T10:30:46.290Z,99.90
2018-11-02T10:33:19.389Z,99.90
2018-11-02T10:35:53.574Z,99.90
2018-11-02T10:38:26.617Z,99.90
2018-11-02T10:41:01.187Z,99.90
2018-11-02T10:43:35.339Z,99.90
2018-11-02T10:46:08.565Z,99.90
2018-11-02T10:48:39.588Z,99.90
2018-11-02T10:51:10.256Z,99.90
2018-11-02T10:53:41.453Z,99.90
2018-11-02T10:56:12.546Z,99.90
2018-11-02T10:58:43.599Z,99.90
2018-11-02T11:01:19.098Z,99.90
2018-11-02T11:03:50.765Z,99.90
2018-11-02T11:06:22.080Z,99.90
2018-11-02T11:08:53.839Z,99.90
2018-11-02T11:11:26.161Z,99.90
2018-11-02T11:13:57.620Z,99.90
2018-11-02T11:16:28.033Z,99.90
2018-11-02T11:18:58.936Z,99.90
2018-11-02T11:21:29.773Z,99.90
2018-11-02T11:24:01.021Z,99.90
2018-11-02T11:26:32.136Z,99.90
2018-11-02T11:29:03.474Z,99.90
2018-11-02T11:31:34.977Z,99.90
2018-11-02T11:34:05.904Z,99.90
2018-11-02T11:36:37.277Z,99.90
2018-11-02T11:39:10.274Z,99.90
2018-11-02T11:41:41.590Z,99.90
2018-11-02T11:44:12.661Z,99.90
2018-11-02T11:46:43.830Z,99.90
2018-11-02T11:52:22.103Z,99.90
2018-11-02T11:58:01.065Z,99.90
2018-11-02T12:00:33.695Z,99.90
2018-11-02T12:03:07.280Z,99.90
2018-11-02T12:05:38.701Z,99.90
2018-11-02T12:08:09.768Z,99.90
2018-11-02T12:10:48.613Z,99.90
2018-11-02T12:13:20.390Z,99.90
2018-11-02T12:22:15.740Z,99.90
2018-11-02T12:24:48.458Z,99.90
2018-11-02T12:27:19.777Z,99.90
2018-11-02T12:29:50.996Z,99.90
2018-11-02T12:32:22.352Z,99.90
2018-11-02T12:34:53.012Z,99.90
2018-11-02T12:37:25.816Z,99.90
2018-11-02T12:43:05.126Z,99.90
2018-11-02T12:45:36.821Z,99.90
2018-11-02T12:48:10.141Z,99.90
2018-11-02T12:50:41.625Z,99.90
2018-11-02T12:53:13.207Z,99.90
2018-11-02T12:55:45.657Z,99.90
2018-11-02T12:58:19.190Z,99.90
2018-11-02T13:00:50.987Z,99.90
2018-11-02T13:03:23.820Z,99.90
2018-11-02T13:05:55.416Z,99.90
2018-11-02T13:08:26.863Z,99.90
2018-11-02T13:10:59.733Z,99.90
2018-11-02T13:13:31.169Z,99.90
2018-11-02T13:16:04.221Z,99.90
2018-11-02T13:21:14.521Z,99.90
2018-11-02T13:23:46.996Z,99.90
2018-11-02T13:26:18.876Z,99.90
2018-11-02T13:28:50.455Z,99.90
2018-11-02T13:31:22.444Z,99.90
2018-11-02T13:33:54.099Z,99.90
2018-11-02T13:36:26.201Z,99.90
2018-11-02T13:38:57.851Z,99.90
2018-11-02T13:41:29.619Z,99.90
2018-11-02T13:44:36.354Z,99.90
2018-11-02T13:47:08.464Z,99.90
2018-11-02T13:49:39.014Z,99.90
2018-11-02T13:52:10.744Z,99.90
2018-11-02T13:54:41.449Z,99.90
2018-11-02T13:57:12.276Z,99.90
2018-11-02T13:59:42.978Z,99.90
2018-11-02T14:02:13.886Z,99.90
2018-11-02T14:04:45.651Z,99.90
2018-11-02T14:07:16.569Z,99.90
2018-11-02T14:09:47.383Z,99.90
2018-11-02T14:12:19.821Z,99.90
2018-11-02T14:14:53.108Z,99.90
2018-11-02T14:17:26.084Z,99.90
2018-11-02T14:19:59.683Z,99.90
2018-11-02T14:22:31.974Z,99.90
2018-11-02T14:25:04.917Z,99.90
2018-11-02T14:27:38.351Z,99.90
2018-11-02T14:30:11.166Z,99.90
2018-11-02T14:32:42.339Z,99.90
2018-11-02T14:35:12.768Z,99.90
2018-11-02T14:37:44.143Z,99.90
2018-11-02T14:40:15.319Z,99.90
2018-11-02T14:42:46.012Z,99.90
2018-11-02T14:45:17.689Z,99.90
2018-11-02T14:47:48.838Z,99.90
2018-11-02T14:56:35.806Z,99.90
2018-11-02T15:02:14.926Z,99.90
2018-11-02T15:04:46.228Z,99.90
2018-11-02T15:07:17.389Z,99.90
2018-11-02T15:09:49.157Z,99.90
2018-11-02T15:12:20.184Z,99.90
2018-11-02T15:14:52.301Z,99.90
2018-11-02T15:17:23.292Z,99.90
2018-11-02T15:19:54.184Z,99.90
2018-11-02T15:22:24.844Z,99.90
2018-11-02T15:24:55.675Z,98.80
2018-11-02T15:27:26.468Z,97.40
2018-11-02T15:29:57.613Z,94.60
2018-11-02T15:32:28.853Z,93.60
2018-11-02T15:34:59.489Z,94.60
2018-11-02T15:37:30.433Z,89.20
2018-11-02T15:40:01.908Z,88.00
2018-11-02T15:42:33.558Z,87.70
2018-11-02T15:45:05.806Z,90.00
2018-11-02T15:47:37.714Z,90.40
2018-11-02T15:50:09.797Z,84.00
2018-11-02T15:52:43.227Z,83.90
2018-11-02T15:55:14.748Z,84.40
2018-11-02T15:57:45.622Z,82.70
2018-11-02T16:00:18.250Z,83.40
2018-11-02T16:02:54.216Z,81.40
2018-11-02T16:05:25.162Z,81.60
2018-11-02T16:07:56.255Z,80.50
2018-11-02T16:10:26.972Z,79.90
2018-11-02T16:12:58.020Z,83.20
2018-11-02T16:15:28.697Z,81.80
2018-11-02T16:17:59.377Z,78.00
2018-11-02T16:20:31.304Z,80.40
2018-11-02T16:23:02.494Z,80.40
2018-11-02T16:25:32.997Z,79.20
2018-11-02T16:28:03.648Z,78.20
2018-11-02T16:30:35.262Z,82.60
2018-11-02T16:33:07.159Z,80.40
2018-11-02T16:35:38.204Z,82.00
2018-11-02T16:38:09.252Z,81.00
2018-11-02T16:40:40.256Z,81.10
2018-11-02T16:43:11.113Z,78.80
2018-11-02T16:45:42.830Z,76.90
2018-11-02T16:48:13.671Z,77.40
2018-11-02T16:50:44.526Z,80.80
2018-11-02T16:53:15.272Z,81.30
2018-11-02T16:55:46.659Z,84.70
2018-11-02T16:58:18.358Z,84.70
2018-11-02T17:00:49.093Z,82.90
2018-11-02T17:03:20.610Z,79.90
2018-11-02T17:05:51.291Z,79.60
2018-11-02T17:08:22.082Z,82.40
2018-11-02T17:10:55.206Z,85.20
2018-11-02T17:13:26.042Z,85.70
2018-11-02T17:15:56.844Z,83.20
2018-11-02T17:18:28.417Z,83.50
2018-11-02T17:21:01.051Z,81.00
2018-11-02T17:23:32.081Z,79.60
2018-11-02T17:26:02.841Z,82.40
2018-11-02T17:28:36.016Z,81.50
2018-11-02T17:31:09.022Z,80.50
2018-11-02T17:33:40.151Z,79.20
2018-11-02T17:36:11.207Z,81.90
2018-11-02T17:38:42.142Z,78.60
2018-11-02T17:41:13.143Z,81.30
2018-11-02T17:43:45.226Z,81.20
2018-11-02T17:46:16.179Z,80.80
2018-11-02T17:48:47.428Z,78.50
2018-11-02T17:51:19.733Z,76.00
2018-11-02T17:54:00.370Z,78.00
2018-11-02T17:56:59.537Z,76.40
2018-11-02T17:59:33.925Z,72.00
2018-11-02T18:02:04.693Z,75.00
2018-11-02T18:04:37.942Z,75.90
2018-11-02T18:07:09.856Z,76.50
2018-11-02T18:12:49.226Z,74.70
2018-11-02T18:18:29.145Z,71.40
2018-11-02T18:21:01.279Z,72.00
2018-11-02T18:23:36.115Z,71.70
2018-11-02T18:26:08.269Z,70.20
2018-11-02T18:31:47.099Z,72.00
2018-11-02T18:34:18.254Z,71.80
2018-11-02T18:36:50.282Z,71.10
2018-11-02T18:39:21.967Z,71.60
2018-11-02T18:41:54.544Z,73.00
2018-11-02T18:44:27.094Z,70.70
2018-11-02T18:47:05.050Z,70.70
2018-11-02T18:49:36.807Z,71.00
2018-11-02T18:52:08.983Z,69.70
2018-11-02T18:54:41.390Z,68.70
2018-11-02T19:00:00.768Z,73.00
2018-11-02T19:02:32.054Z,73.10
2018-11-02T19:05:03.108Z,69.90
2018-11-02T19:07:39.113Z,67.10
2018-11-02T19:10:12.683Z,64.90
2018-11-02T19:12:45.643Z,64.10
2018-11-02T19:15:18.122Z,67.10
2018-11-02T19:17:51.447Z,68.10
2018-11-02T19:20:23.470Z,67.60
2018-11-02T19:22:55.884Z,67.00
2018-11-02T19:25:32.315Z,69.70
2018-11-02T19:28:03.829Z,69.00
2018-11-02T19:30:36.289Z,68.50
2018-11-02T19:33:07.528Z,67.30
2018-11-02T19:35:42.108Z,68.20
2018-11-02T19:38:18.540Z,69.60
2018-11-02T19:40:49.969Z,69.10
2018-11-02T19:43:21.688Z,69.70
2018-11-02T19:45:59.642Z,67.50
2018-11-02T19:48:38.148Z,66.80
2018-11-02T19:51:12.329Z,69.70
2018-11-02T19:54:18.879Z,69.80
2018-11-02T19:56:50.172Z,71.60
2018-11-02T19:59:21.244Z,72.50
2018-11-02T20:01:51.840Z,75.00
2018-11-02T20:04:22.595Z,73.90
2018-11-02T20:06:53.088Z,73.50
2018-11-02T20:09:23.901Z,75.70
2018-11-02T20:11:54.553Z,77.10
2018-11-02T20:14:25.095Z,77.10
2018-11-02T20:16:58.325Z,76.10
2018-11-02T20:19:28.934Z,77.60
2018-11-02T20:22:00.141Z,77.20
2018-11-02T20:24:31.460Z,74.50
2018-11-02T20:27:02.033Z,74.40
2018-11-02T20:29:32.868Z,71.70
2018-11-02T20:32:05.923Z,69.70
2018-11-02T20:34:37.188Z,68.10
2018-11-02T20:37:07.805Z,69.00
2018-11-02T20:39:38.488Z,69.30
2018-11-02T20:42:11.840Z,71.30
2018-11-02T20:44:43.048Z,72.30
2018-11-02T20:47:13.579Z,75.00
2018-11-02T20:49:44.438Z,76.70
2018-11-02T20:52:15.058Z,77.70
2018-11-02T20:54:46.334Z,78.60
2018-11-02T20:57:17.574Z,81.00
2018-11-02T20:59:48.606Z,83.10
2018-11-02T21:02:19.431Z,83.20
2018-11-02T21:04:50.653Z,82.10
2018-11-02T21:07:22.054Z,82.00
2018-11-02T21:09:54.720Z,82.80
2018-11-02T21:12:25.998Z,82.50
2018-11-02T21:14:57.511Z,82.30
2018-11-02T21:17:28.836Z,82.20
2018-11-02T21:20:00.045Z,82.50
2018-11-02T21:22:31.093Z,82.20
2018-11-02T21:25:03.648Z,80.50
2018-11-02T21:27:35.040Z,82.40
2018-11-02T21:30:06.270Z,96.80
2018-11-02T21:32:39.296Z,99.90
2018-11-02T21:35:12.488Z,99.90
2018-11-02T21:37:45.674Z,99.90
2018-11-02T21:40:19.869Z,99.90
2018-11-02T21:42:54.245Z,99.90
2018-11-02T21:45:25.866Z,99.90
2018-11-02T21:47:56.884Z,99.90
2018-11-02T21:50:27.987Z,99.90
2018-11-02T21:53:00.805Z,99.90
2018-11-02T21:58:51.117Z,99.90
2018-11-02T22:01:23.620Z,99.90
2018-11-02T22:03:54.762Z,99.90
2018-11-02T22:06:26.131Z,99.90
2018-11-02T22:08:57.593Z,99.90
2018-11-02T22:11:28.994Z,99.90
2018-11-02T22:17:08.419Z,99.90
2018-11-02T22:19:39.104Z,99.90
2018-11-02T22:22:12.461Z,99.90
2018-11-02T22:24:43.927Z,99.90
2018-11-02T22:27:16.346Z,99.90
2018-11-02T22:29:47.553Z,99.90
2018-11-02T22:32:18.620Z,99.90
2018-11-02T22:34:49.988Z,99.90
2018-11-02T22:37:21.156Z,99.90
2018-11-02T22:39:52.952Z,99.90
2018-11-02T22:42:23.947Z,99.90
2018-11-02T22:44:55.124Z,99.90
2018-11-02T22:47:26.197Z,99.90
2018-11-02T22:49:59.248Z,99.90
2018-11-02T22:52:30.491Z,99.90
2018-11-02T22:55:01.385Z,99.90
2018-11-02T22:57:32.743Z,99.90
2018-11-02T23:00:03.845Z,99.90
2018-11-02T23:02:35.022Z,99.90
2018-11-02T23:05:07.032Z,99.90
2018-11-02T23:07:38.508Z,99.90
2018-11-02T23:10:12.915Z,99.90
2018-11-02T23:12:44.222Z,99.90
2018-11-02T23:15:20.324Z,99.90
2018-11-02T23:17:51.765Z,99.90
2018-11-02T23:20:23.990Z,99.90
2018-11-02T23:22:55.695Z,99.90
2018-11-02T23:25:27.814Z,99.90
2018-11-02T23:27:58.991Z,99.90
2018-11-02T23:30:30.340Z,99.90
2018-11-02T23:33:01.402Z,99.90
2018-11-02T23:35:32.811Z,99.90
2018-11-02T23:38:03.968Z,99.90
2018-11-02T23:40:36.278Z,99.90
2018-11-02T23:43:07.954Z,99.90
2018-11-02T23:45:40.094Z,99.90
2018-11-02T23:48:18.633Z,99.90
2018-11-02T23:50:51.796Z,99.90
2018-11-02T23:53:24.202Z,99.90
2018-11-02T23:55:55.305Z,99.90
2018-11-02T23:58:26.458Z,99.90
